Time;durP1;ratioP1;P1;durP2;ratioP2;P2;SDS_P1;SDS_P2;PMS_P1;PMS_P2;Temp;Humidity;BMP_temperature;BMP_pressure;BME280_temperature;BME280_humidity;BME280_pressure;Samples;Min_cycle;Max_cycle;Signal;HPM_P1;HPM_P2
2022/06/01 00:00:22;;;;;;;;;3.00;3.00;;;;;-142.59;100.00;56100.38;5035375;28;49763;-77
2022/06/01 00:02:47;;;;;;;;;2.50;2.50;;;;;-142.59;100.00;56100.38;5035021;28;50136;-74
2022/06/01 00:05:13;;;;;;;;;4.25;3.50;;;;;-142.59;100.00;56100.38;5035168;28;49864;-75
2022/06/01 00:07:38;;;;;;;;;4.00;4.00;;;;;-142.59;100.00;56100.38;5034790;28;50603;-77
2022/06/01 00:10:04;;;;;;;;;4.00;3.00;;;;;-142.59;100.00;56100.38;5017351;28;49818;-77
2022/06/01 00:12:30;;;;;;;;;3.50;3.50;;;;;-142.59;100.00;56100.38;5034713;28;49847;-77
2022/06/01 00:14:57;;;;;;;;;4.75;3.00;;;;;-142.59;100.00;56100.38;5035103;28;49958;-75
2022/06/01 00:17:23;;;;;;;;;4.25;3.00;;;;;-142.59;100.00;56100.38;5028590;28;50545;-76
2022/06/01 00:19:49;;;;;;;;;3.00;3.00;;;;;-142.59;100.00;56100.38;5034820;28;49646;-74
2022/06/01 00:22:15;;;;;;;;;3.50;1.75;;;;;-142.59;100.00;56100.38;5034460;28;49989;-75
2022/06/01 00:24:43;;;;;;;;;4.50;2.75;;;;;-142.59;100.00;56100.38;5034882;28;49907;-75
2022/06/01 00:27:10;;;;;;;;;3.50;3.50;;;;;-142.59;100.00;56100.38;5034431;28;50592;-77
2022/06/01 00:29:36;;;;;;;;;2.00;2.00;;;;;-142.59;100.00;56100.38;5034611;28;50248;-72
2022/06/01 00:32:03;;;;;;;;;3.00;3.00;;;;;-142.59;100.00;56100.38;5034514;28;49770;-74
2022/06/01 00:34:28;;;;;;;;;4.00;2.00;;;;;-142.59;100.00;56100.38;5034702;28;49949;-75
2022/06/01 00:36:53;;;;;;;;;3.50;2.50;;;;;-142.59;100.00;56100.38;5034022;28;49698;-76
2022/06/01 00:39:19;;;;;;;;;7.00;4.00;;;;;-142.59;100.00;56100.38;5034526;28;49750;-74
2022/06/01 00:41:44;;;;;;;;;2.00;2.00;;;;;-142.59;100.00;56100.38;5034569;28;49726;-74
2022/06/01 00:44:10;;;;;;;;;5.25;2.75;;;;;-142.59;100.00;56100.38;5034487;28;49614;-77
2022/06/01 00:46:35;;;;;;;;;3.00;3.00;;;;;-142.59;100.00;56100.38;5034274;28;49821;-76
2022/06/01 00:49:11;;;;;;;;;4.75;4.75;;;;;-142.59;100.00;56100.38;5034365;28;49789;-75
2022/06/01 00:51:37;;;;;;;;;2.50;2.50;;;;;-142.59;100.00;56100.38;5034083;28;49822;-75
2022/06/01 00:54:03;;;;;;;;;2.00;2.00;;;;;-142.59;100.00;56100.38;5034441;28;49844;-75
2022/06/01 00:56:37;;;;;;;;;4.00;4.00;;;;;-142.59;100.00;56100.38;5033897;28;50854;-75
2022/06/01 00:59:05;;;;;;;;;0.25;0.00;;;;;-142.59;100.00;56100.38;5034216;28;49773;-75
2022/06/01 01:01:30;;;;;;;;;3.00;3.00;;;;;-142.59;100.00;56100.38;5030084;28;49804;-76
2022/06/01 01:03:59;;;;;;;;;2.25;2.25;;;;;-142.59;100.00;56100.38;5015270;28;49652;-75
2022/06/01 01:06:24;;;;;;;;;3.50;3.00;;;;;-142.59;100.00;56100.38;5014675;28;51022;-74
2022/06/01 01:08:51;;;;;;;;;4.00;3.25;;;;;-142.59;100.00;56100.38;5014808;28;49793;-75
2022/06/01 01:11:23;;;;;;;;;4.25;3.50;;;;;-142.59;100.00;56100.38;5014561;28;49773;-77
2022/06/01 01:13:51;;;;;;;;;1.00;1.00;;;;;-142.59;100.00;56100.38;5015077;28;50002;-76
2022/06/01 01:16:18;;;;;;;;;4.00;4.00;;;;;-142.59;100.00;56100.38;5014805;28;50571;-76
2022/06/01 01:18:45;;;;;;;;;2.50;2.50;;;;;-142.59;100.00;56100.38;5014621;28;49820;-74
2022/06/01 01:21:19;;;;;;;;;4.00;4.00;;;;;-142.59;100.00;56100.38;5014626;28;49900;-78
2022/06/01 01:23:44;;;;;;;;;2.25;2.25;;;;;-142.59;100.00;56100.38;5014977;28;49668;-76
2022/06/01 01:26:10;;;;;;;;;2.00;2.00;;;;;-142.59;100.00;56100.38;5014595;28;49769;-73
2022/06/01 01:28:35;;;;;;;;;3.25;3.25;;;;;-142.59;100.00;56100.38;5014815;28;49867;-76
2022/06/01 01:31:09;;;;;;;;;3.00;3.00;;;;;-142.59;100.00;56100.38;5014556;28;49682;-74
2022/06/01 01:33:34;;;;;;;;;4.50;3.00;;;;;-142.59;100.00;56100.38;5014889;28;49660;-76
2022/06/01 01:36:08;;;;;;;;;3.50;3.50;;;;;-142.59;100.00;56100.38;5013822;28;49891;-75
2022/06/01 01:38:37;;;;;;;;;3.75;3.75;;;;;-142.59;100.00;56100.38;5014385;28;50055;-73
2022/06/01 01:41:07;;;;;;;;;2.75;2.75;;;;;-142.59;100.00;56100.38;5014609;28;49753;-73
2022/06/01 01:43:36;;;;;;;;;3.00;3.00;;;;;-142.59;100.00;56100.38;5014678;28;49860;-74
2022/06/01 01:46:02;;;;;;;;;9.25;5.75;;;;;-142.59;100.00;56100.38;5014015;28;49678;-75
2022/06/01 01:48:27;;;;;;;;;3.25;3.25;;;;;-142.59;100.00;56100.38;5014251;28;49640;-74
2022/06/01 01:50:54;;;;;;;;;4.00;3.25;;;;;-142.59;100.00;56100.38;5014189;28;49639;-74
2022/06/01 01:53:20;;;;;;;;;5.25;3.00;;;;;-142.59;100.00;56100.38;5014315;28;49667;-75
2022/06/01 01:55:51;;;;;;;;;4.00;4.00;;;;;-142.59;100.00;56100.38;5014070;28;50556;-74
2022/06/01 01:58:46;;;;;;;;;5.00;4.75;;;;;-142.59;100.00;56100.38;5014220;28;49559;-74
2022/06/01 02:01:19;;;;;;;;;3.50;3.50;;;;;-142.59;100.00;56100.38;5028699;28;49754;-73
2022/06/01 02:03:52;;;;;;;;;3.25;3.25;;;;;-142.59;100.00;56100.38;5033490;28;49559;-75
2022/06/01 02:06:40;;;;;;;;;5.50;3.75;;;;;-142.59;100.00;56100.38;5033009;28;50829;-74
2022/06/01 02:09:09;;;;;;;;;3.00;3.00;;;;;-142.59;100.00;56100.38;5032987;28;49950;-76
2022/06/01 02:14:43;;;;;;;;;5.50;5.00;;;;;-142.59;100.00;56100.38;5033089;28;49575;-74
2022/06/01 02:17:36;;;;;;;;;4.00;3.00;;;;;-142.59;100.00;56100.38;5032888;28;49728;-76
2022/06/01 02:20:10;;;;;;;;;6.00;4.25;;;;;-142.59;100.00;56100.38;5032991;28;49789;-77
2022/06/01 02:22:37;;;;;;;;;4.00;4.00;;;;;-142.59;100.00;56100.38;5032252;28;49701;-76
2022/06/01 02:25:03;;;;;;;;;6.50;5.00;;;;;-142.59;100.00;56100.38;5033072;28;49870;-76
2022/06/01 02:27:29;;;;;;;;;9.75;8.75;;;;;-142.59;100.00;56100.38;5032743;28;50249;-75
2022/06/01 02:30:07;;;;;;;;;6.00;6.00;;;;;-142.59;100.00;56100.38;5032653;28;49614;-77
2022/06/01 02:32:34;;;;;;;;;5.00;5.00;;;;;-142.59;100.00;56100.38;5032785;28;50010;-75
2022/06/01 02:35:02;;;;;;;;;8.50;8.50;;;;;-142.59;100.00;56100.38;5032812;28;49820;-77
2022/06/01 02:37:30;;;;;;;;;5.75;5.75;;;;;-142.59;100.00;56100.38;5014556;28;51906;-76
2022/06/01 02:39:58;;;;;;;;;8.75;7.00;;;;;-142.59;100.00;56100.38;5032704;28;49692;-76
2022/06/01 02:42:26;;;;;;;;;5.75;5.75;;;;;-142.59;100.00;56100.38;5032491;28;49737;-75
2022/06/01 02:44:59;;;;;;;;;9.25;8.25;;;;;-142.59;100.00;56100.38;5032891;28;49775;-77
2022/06/01 02:47:26;;;;;;;;;7.25;5.25;;;;;-142.59;100.00;56100.38;5032277;28;49564;-78
2022/06/01 02:49:52;;;;;;;;;6.00;6.00;;;;;-142.59;100.00;56100.38;5032571;28;49562;-76
2022/06/01 02:52:18;;;;;;;;;6.50;5.75;;;;;-142.59;100.00;56100.38;5032514;28;49594;-77
2022/06/01 02:54:44;;;;;;;;;6.00;6.00;;;;;-142.59;100.00;56100.38;5032662;28;49625;-75
2022/06/01 02:57:10;;;;;;;;;8.25;8.00;;;;;-142.59;100.00;56100.38;5032282;28;50637;-77
2022/06/01 02:59:36;;;;;;;;;10.00;9.00;;;;;-142.59;100.00;56100.38;5032456;28;49947;-78
2022/06/01 03:02:03;;;;;;;;;7.25;7.25;;;;;-142.59;100.00;56100.38;5032590;28;49904;-75
2022/06/01 03:04:28;;;;;;;;;6.00;6.00;;;;;-142.59;100.00;56100.38;5032608;28;49979;-75
2022/06/01 03:06:54;;;;;;;;;6.75;6.00;;;;;-142.59;100.00;56100.38;5032002;28;50339;-75
2022/06/01 03:09:20;;;;;;;;;10.75;10.75;;;;;-142.59;100.00;56100.38;5032138;28;49816;-74
2022/06/01 03:11:45;;;;;;;;;9.00;8.00;;;;;-142.59;100.00;56100.38;5032087;28;49706;-76
2022/06/01 03:14:11;;;;;;;;;6.25;6.25;;;;;-142.59;100.00;56100.38;5032593;28;49470;-77
2022/06/01 03:16:37;;;;;;;;;10.75;8.75;;;;;-142.59;100.00;56100.38;5025835;28;50179;-75
2022/06/01 03:19:03;;;;;;;;;10.00;10.00;;;;;-142.59;100.00;56100.38;5032028;28;49686;-77
2022/06/01 03:21:28;;;;;;;;;11.25;10.25;;;;;-142.59;100.00;56100.38;5032082;28;49670;-76
2022/06/01 03:23:55;;;;;;;;;11.25;11.25;;;;;-142.59;100.00;56100.38;5032213;28;49935;-75
2022/06/01 03:26:22;;;;;;;;;11.25;8.50;;;;;-142.59;100.00;56100.38;5031882;28;49893;-73
2022/06/01 03:28:47;;;;;;;;;11.75;9.50;;;;;-142.59;100.00;56100.38;5013963;28;49667;-75
2022/06/01 03:31:13;;;;;;;;;8.75;8.00;;;;;-142.59;100.00;56100.38;5013002;28;50144;-75
2022/06/01 03:33:38;;;;;;;;;10.00;9.00;;;;;-142.59;100.00;56100.38;5012768;28;50519;-75
2022/06/01 03:36:04;;;;;;;;;10.25;9.00;;;;;-142.59;100.00;56100.38;5014356;28;50547;-75
2022/06/01 03:38:30;;;;;;;;;8.50;8.50;;;;;-142.59;100.00;56100.38;5016298;28;50168;-75
2022/06/01 03:40:56;;;;;;;;;8.75;7.50;;;;;-142.59;100.00;56100.38;5016335;28;49786;-76
2022/06/01 03:43:21;;;;;;;;;8.75;8.25;;;;;-142.59;100.00;56100.38;5016391;28;49831;-77
2022/06/01 03:45:55;;;;;;;;;8.75;8.00;;;;;-142.59;100.00;56100.38;5015987;28;50817;-74
2022/06/01 03:48:22;;;;;;;;;10.25;9.25;;;;;-142.59;100.00;56100.38;5016278;28;49599;-77
2022/06/01 03:50:47;;;;;;;;;8.00;8.00;;;;;-142.59;100.00;56100.38;5016138;28;49746;-76
2022/06/01 03:53:13;;;;;;;;;10.25;10.25;;;;;-142.59;100.00;56100.38;5014960;28;50002;-76
2022/06/01 03:55:39;;;;;;;;;11.50;10.00;;;;;-142.59;100.00;56100.38;5015942;28;50592;-75
2022/06/01 03:58:05;;;;;;;;;19.25;15.25;;;;;-142.59;100.00;56100.38;5016090;28;49663;-77
2022/06/01 04:00:30;;;;;;;;;10.00;10.00;;;;;-142.59;100.00;56100.38;4998137;28;50002;-75
2022/06/01 04:02:55;;;;;;;;;11.75;10.00;;;;;-142.59;100.00;56100.38;5016168;28;49757;-74
2022/06/01 04:05:23;;;;;;;;;12.50;10.25;;;;;-142.59;100.00;56100.38;5015764;28;50449;-76
2022/06/01 04:07:48;;;;;;;;;12.25;10.75;;;;;-142.59;100.00;56100.38;5015489;28;49493;-75
2022/06/01 04:10:14;;;;;;;;;11.00;11.00;;;;;-142.59;100.00;56100.38;5015913;28;49711;-74
2022/06/01 04:12:40;;;;;;;;;10.00;10.00;;;;;-142.59;100.00;56100.38;5015880;28;49960;-77
2022/06/01 04:15:08;;;;;;;;;9.50;8.25;;;;;-142.59;100.00;56100.38;5014365;28;50709;-75
2022/06/01 04:17:35;;;;;;;;;8.75;8.75;;;;;-142.59;100.00;56100.38;5015902;28;49678;-75
2022/06/01 04:20:00;;;;;;;;;8.50;8.50;;;;;-142.59;100.00;56100.38;5015806;28;49765;-75
2022/06/01 04:22:26;;;;;;;;;5.50;5.50;;;;;-142.59;100.00;56100.38;5015685;28;49828;-75
2022/06/01 04:24:51;;;;;;;;;6.50;6.50;;;;;-142.59;100.00;56100.38;5028333;28;49956;-76
2022/06/01 04:27:16;;;;;;;;;9.00;8.50;;;;;-142.59;100.00;56100.38;5033353;28;49868;-77
2022/06/01 04:29:42;;;;;;;;;7.50;7.50;;;;;-142.59;100.00;56100.38;5034745;28;49728;-77
2022/06/01 04:32:28;;;;;;;;;5.00;5.00;;;;;-142.59;100.00;56100.38;5034491;28;49563;-76
2022/06/01 04:34:53;;;;;;;;;8.75;8.00;;;;;-142.59;100.00;56100.38;5033936;28;51065;-75
2022/06/01 04:37:20;;;;;;;;;9.50;9.50;;;;;-142.59;100.00;56100.38;5016708;28;49950;-75
2022/06/01 04:39:45;;;;;;;;;8.00;7.75;;;;;-142.59;100.00;56100.38;5034534;28;49724;-76
2022/06/01 04:42:10;;;;;;;;;8.75;8.75;;;;;-142.59;100.00;56100.38;5034750;28;50282;-75
2022/06/01 04:44:36;;;;;;;;;9.75;8.75;;;;;-142.59;100.00;56100.38;5034528;28;49619;-75
2022/06/01 04:47:01;;;;;;;;;8.00;8.00;;;;;-142.59;100.00;56100.38;5033735;28;49649;-74
2022/06/01 04:49:26;;;;;;;;;6.25;6.25;;;;;-142.59;100.00;56100.38;5016834;28;50711;-76
2022/06/01 04:51:52;;;;;;;;;8.25;8.00;;;;;-142.59;100.00;56100.38;5034364;28;50352;-74
2022/06/01 04:54:18;;;;;;;;;5.50;5.00;;;;;-142.59;100.00;56100.38;5034164;28;50279;-76
2022/06/01 04:56:43;;;;;;;;;8.00;6.25;;;;;-142.59;100.00;56100.38;5034254;28;49606;-77
2022/06/01 04:59:09;;;;;;;;;8.00;8.00;;;;;-142.59;100.00;56100.38;5034064;28;49854;-76
2022/06/01 05:01:35;;;;;;;;;8.25;8.25;;;;;-142.59;100.00;56100.38;5034542;28;49752;-76
2022/06/01 05:04:00;;;;;;;;;6.25;6.25;;;;;-142.59;100.00;56100.38;5033809;28;49834;-76
2022/06/01 05:06:25;;;;;;;;;10.50;8.75;;;;;-142.59;100.00;56100.38;5013155;28;49705;-77
2022/06/01 05:08:51;;;;;;;;;5.25;5.25;;;;;-142.59;100.00;56100.38;5024362;28;49735;-76
2022/06/01 05:11:17;;;;;;;;;8.50;8.50;;;;;-142.59;100.00;56100.38;5034228;28;49594;-77
2022/06/01 05:13:42;;;;;;;;;11.00;10.00;;;;;-142.59;100.00;56100.38;5033752;28;49586;-76
2022/06/01 05:16:08;;;;;;;;;8.25;5.75;;;;;-142.59;100.00;56100.38;5033996;28;49543;-76
2022/06/01 05:18:33;;;;;;;;;8.25;6.75;;;;;-142.59;100.00;56100.38;5033976;28;49663;-75
2022/06/01 05:20:59;;;;;;;;;6.75;6.25;;;;;-142.59;100.00;56100.38;5034312;28;49837;-77
2022/06/01 05:23:25;;;;;;;;;8.00;8.00;;;;;-142.59;100.00;56100.38;5034678;28;50321;-77
2022/06/01 05:25:52;;;;;;;;;11.75;8.75;;;;;-142.59;100.00;56100.38;5034246;28;49696;-77
2022/06/01 05:28:21;;;;;;;;;7.75;7.00;;;;;-142.59;100.00;56100.38;5033871;28;49789;-77
2022/06/01 05:30:46;;;;;;;;;6.25;5.25;;;;;-142.59;100.00;56100.38;5016819;28;49734;-76
2022/06/01 05:33:12;;;;;;;;;15.75;11.50;;;;;-142.59;100.00;56100.38;5033612;28;50531;-75
2022/06/01 05:35:37;;;;;;;;;9.75;6.25;;;;;-142.59;100.00;56100.38;5033111;28;49734;-75
2022/06/01 05:38:03;;;;;;;;;7.25;7.25;;;;;-142.59;100.00;56100.38;5033884;28;49718;-73
2022/06/01 05:40:30;;;;;;;;;6.50;6.00;;;;;-142.59;100.00;56100.38;5034129;28;49670;-79
2022/06/01 05:42:57;;;;;;;;;9.00;9.00;;;;;-142.59;100.00;56100.38;5026792;28;52545;-74
2022/06/01 05:45:23;;;;;;;;;7.50;7.25;;;;;-142.59;100.00;56100.38;5014406;28;49722;-76
2022/06/01 05:47:48;;;;;;;;;11.25;9.25;;;;;-142.59;100.00;56100.38;5014382;28;49880;-76
2022/06/01 05:50:14;;;;;;;;;6.75;6.75;;;;;-142.59;100.00;56100.38;5014606;28;49705;-74
2022/06/01 05:52:39;;;;;;;;;8.50;8.50;;;;;-142.59;100.00;56100.38;5018813;28;50617;-75
2022/06/01 05:55:10;;;;;;;;;10.50;9.00;;;;;-142.59;100.00;56100.38;5033055;28;49831;-76
2022/06/01 05:57:35;;;;;;;;;12.00;8.75;;;;;-142.59;100.00;56100.38;5032398;28;50011;-77
2022/06/01 06:00:05;;;;;;;;;12.00;10.75;;;;;-142.59;100.00;56100.38;5015848;28;49972;-78
2022/06/01 06:02:30;;;;;;;;;8.50;7.25;;;;;-142.59;100.00;56100.38;5011889;28;50968;-75
2022/06/01 06:04:55;;;;;;;;;10.00;10.00;;;;;-142.59;100.00;56100.38;5021818;28;49955;-77
2022/06/01 06:07:21;;;;;;;;;7.75;7.00;;;;;-142.59;100.00;56100.38;5017460;28;49832;-76
2022/06/01 06:09:46;;;;;;;;;9.25;6.50;;;;;-142.59;100.00;56100.38;5014134;28;49853;-77
2022/06/01 06:12:12;;;;;;;;;11.75;10.25;;;;;-142.59;100.00;56100.38;5013612;28;51058;-75
2022/06/01 06:14:38;;;;;;;;;6.50;6.00;;;;;-142.59;100.00;56100.38;5013846;28;49925;-78
2022/06/01 06:17:03;;;;;;;;;6.25;6.25;;;;;-142.59;100.00;56100.38;5014133;28;49866;-78
2022/06/01 06:19:29;;;;;;;;;9.25;7.25;;;;;-142.59;100.00;56100.38;4997613;28;49620;-75
2022/06/01 06:21:54;;;;;;;;;4.00;4.00;;;;;-142.59;100.00;56100.38;5013911;28;50254;-75
2022/06/01 06:24:20;;;;;;;;;3.50;3.50;;;;;-142.59;100.00;56100.38;5013662;28;49740;-73
2022/06/01 06:26:46;;;;;;;;;4.00;4.00;;;;;-142.59;100.00;56100.38;5021716;28;49908;-77
2022/06/01 06:29:15;;;;;;;;;7.25;6.25;;;;;-142.59;100.00;56100.38;5033019;28;49709;-77
2022/06/01 06:31:40;;;;;;;;;4.00;4.00;;;;;-142.59;100.00;56100.38;5032636;28;50385;-77
2022/06/01 06:34:06;;;;;;;;;5.75;4.50;;;;;-142.59;100.00;56100.38;5032646;28;49755;-74
2022/06/01 06:36:32;;;;;;;;;5.75;4.50;;;;;-142.59;100.00;56100.38;5032455;28;49520;-73
2022/06/01 06:38:57;;;;;;;;;3.75;3.75;;;;;-142.59;100.00;56100.38;5013756;28;49745;-74
2022/06/01 06:41:23;;;;;;;;;3.50;3.25;;;;;-142.59;100.00;56100.38;5012338;28;50658;-73
2022/06/01 06:43:49;;;;;;;;;8.50;5.75;;;;;-142.59;100.00;56100.38;5011394;28;50223;-73
2022/06/01 06:46:17;;;;;;;;;4.75;4.75;;;;;-142.59;100.00;56100.38;5012194;28;49814;-74
2022/06/01 06:48:45;;;;;;;;;4.75;3.75;;;;;-142.59;100.00;56100.38;5012228;28;49866;-73
2022/06/01 06:51:12;;;;;;;;;4.50;3.25;;;;;-142.59;100.00;56100.38;5012348;28;49863;-74
2022/06/01 06:53:37;;;;;;;;;5.75;5.75;;;;;-142.59;100.00;56100.38;5012425;28;49774;-73
2022/06/01 06:56:03;;;;;;;;;2.00;2.00;;;;;-142.59;100.00;56100.38;5012656;28;49780;-75
2022/06/01 06:58:29;;;;;;;;;5.00;5.00;;;;;-142.59;100.00;56100.38;5013580;28;49627;-72
2022/06/01 07:00:55;;;;;;;;;6.50;5.75;;;;;-142.59;100.00;56100.38;5013238;28;50527;-72
2022/06/01 07:03:20;;;;;;;;;6.50;5.50;;;;;-142.59;100.00;56100.38;5013346;28;49694;-73
2022/06/01 07:08:30;;;;;;;;;9.00;6.50;;;;;-142.59;100.00;56100.38;5026128;28;49629;-73
2022/06/01 07:10:56;;;;;;;;;6.75;6.00;;;;;-142.59;100.00;56100.38;5035398;28;50437;-74
2022/06/01 07:13:22;;;;;;;;;6.00;6.00;;;;;-142.59;100.00;56100.38;5035510;28;49855;-81
2022/06/01 07:15:48;;;;;;;;;6.25;6.25;;;;;-142.59;100.00;56100.38;5035992;28;49787;-80
2022/06/01 07:18:14;;;;;;;;;6.50;5.00;;;;;-142.59;100.00;56100.38;5036137;28;49726;-80
2022/06/01 07:20:40;;;;;;;;;6.00;6.00;;;;;-142.59;100.00;56100.38;5017821;28;50672;-77
2022/06/01 07:23:06;;;;;;;;;7.25;6.25;;;;;-142.59;100.00;56100.38;5035509;28;49547;-75
2022/06/01 07:25:32;;;;;;;;;8.50;6.25;;;;;-142.59;100.00;56100.38;5035664;28;49821;-77
2022/06/01 07:27:57;;;;;;;;;8.00;7.00;;;;;-142.59;100.00;56100.38;5036041;28;49622;-77
2022/06/01 07:30:23;;;;;;;;;7.00;7.00;;;;;-142.59;100.00;56100.38;5035548;28;49700;-77
2022/06/01 07:32:49;;;;;;;;;5.00;5.00;;;;;-142.59;100.00;56100.38;5035393;28;49666;-76
2022/06/01 07:35:16;;;;;;;;;10.75;7.00;;;;;-142.59;100.00;56100.38;5035684;28;49617;-77
2022/06/01 07:43:11;;;;;;;;;3.75;3.75;;;;;-142.59;100.00;56100.38;5031217;28;49646;-70
2022/06/01 07:45:39;;;;;;;;;5.75;5.75;;;;;-142.59;100.00;56100.38;5036248;28;49857;-72
2022/06/01 07:48:06;;;;;;;;;6.00;6.00;;;;;-142.59;100.00;56100.38;5036536;28;49908;-72
2022/06/01 07:50:33;;;;;;;;;3.75;3.75;;;;;-142.59;100.00;56100.38;5035532;28;49772;-75
2022/06/01 07:52:59;;;;;;;;;4.75;4.75;;;;;-142.59;100.00;56100.38;5035254;28;49948;-77
2022/06/01 07:55:25;;;;;;;;;7.00;6.50;;;;;-142.59;100.00;56100.38;5035566;28;49987;-74
2022/06/01 07:57:51;;;;;;;;;5.00;4.00;;;;;-142.59;100.00;56100.38;5035613;28;49677;-71
2022/06/01 08:00:17;;;;;;;;;5.00;5.00;;;;;-142.59;100.00;56100.38;5035503;28;50478;-75
2022/06/01 08:02:42;;;;;;;;;2.50;2.50;;;;;-142.59;100.00;56100.38;5022443;28;49838;-73
2022/06/01 08:05:09;;;;;;;;;2.00;2.00;;;;;-142.59;100.00;56100.38;5016238;28;49797;-69
2022/06/01 08:07:34;;;;;;;;;3.00;3.00;;;;;-142.59;100.00;56100.38;5015754;28;49686;-70
2022/06/01 08:10:00;;;;;;;;;4.00;4.00;;;;;-142.59;100.00;56100.38;5020030;28;50394;-70
2022/06/01 08:15:10;;;;;;;;;2.00;2.00;;;;;-142.59;100.00;56100.38;5029147;28;49595;-71
2022/06/01 08:17:36;;;;;;;;;3.00;3.00;;;;;-142.59;100.00;56100.38;5034869;28;49748;-70
2022/06/01 08:20:02;;;;;;;;;2.25;1.25;;;;;-142.59;100.00;56100.38;5034872;28;50533;-71
2022/06/01 08:22:27;;;;;;;;;1.00;1.00;;;;;-142.59;100.00;56100.38;5033984;28;49650;-71
2022/06/01 08:24:53;;;;;;;;;3.00;3.00;;;;;-142.59;100.00;56100.38;5034888;28;49718;-73
2022/06/01 08:27:18;;;;;;;;;0.00;0.00;;;;;-142.59;100.00;56100.38;5035710;28;49698;-71
2022/06/01 08:29:43;;;;;;;;;3.50;1.75;;;;;-142.59;100.00;56100.38;5034182;28;49775;-70
2022/06/01 08:32:09;;;;;;;;;3.50;3.00;;;;;-142.59;100.00;56100.38;5016818;28;49861;-72
2022/06/01 08:34:35;;;;;;;;;2.00;2.00;;;;;-142.59;100.00;56100.38;5015621;28;49636;-71
2022/06/01 08:37:01;;;;;;;;;1.50;1.50;;;;;-142.59;100.00;56100.38;5015813;28;49870;-75
2022/06/01 08:39:26;;;;;;;;;3.75;2.00;;;;;-142.59;100.00;56100.38;5015789;28;49558;-73
2022/06/01 08:41:52;;;;;;;;;3.00;3.00;;;;;-142.59;100.00;56100.38;5019722;28;49608;-70
2022/06/01 08:44:29;;;;;;;;;3.00;3.00;;;;;-142.59;100.00;56100.38;5015272;28;49646;-71
2022/06/01 08:46:58;;;;;;;;;2.00;2.00;;;;;-142.59;100.00;56100.38;5015535;28;50020;-69
2022/06/01 08:49:28;;;;;;;;;1.50;1.50;;;;;-142.59;100.00;56100.38;5015250;28;50643;-69
2022/06/01 08:51:54;;;;;;;;;3.00;3.00;;;;;-142.59;100.00;56100.38;5014968;28;49891;-70
2022/06/01 08:54:21;;;;;;;;;3.00;1.25;;;;;-142.59;100.00;56100.38;5015022;28;50173;-70
2022/06/01 08:56:59;;;;;;;;;1.50;1.00;;;;;-142.59;100.00;56100.38;5015109;28;49742;-70
2022/06/01 08:59:58;;;;;;;;;0.00;0.00;;;;;-142.59;100.00;56100.38;4997142;28;52560;-73
2022/06/01 09:02:42;;;;;;;;;2.00;1.00;;;;;-142.59;100.00;56100.38;5030959;28;49781;-71
2022/06/01 09:05:21;;;;;;;;;1.75;1.75;;;;;-142.59;100.00;56100.38;5033994;28;49880;-71
2022/06/01 09:08:01;;;;;;;;;1.75;1.75;;;;;-142.59;100.00;56100.38;5014848;28;50171;-78
2022/06/01 09:10:57;;;;;;;;;3.00;2.00;;;;;-142.59;100.00;56100.38;5014764;28;49695;-76
2022/06/01 09:13:31;;;;;;;;;2.00;2.00;;;;;-142.59;100.00;56100.38;5016849;28;49676;-70
2022/06/01 09:16:02;;;;;;;;;3.00;3.00;;;;;-142.59;100.00;56100.38;5010214;28;49710;-71
2022/06/01 09:18:32;;;;;;;;;2.00;2.00;;;;;-142.59;100.00;56100.38;5033911;28;49837;-73
2022/06/01 09:23:43;;;;;;;;;2.00;2.00;;;;;-142.59;100.00;56100.38;5014360;28;49882;-71
2022/06/01 09:26:23;;;;;;;;;2.00;2.00;;;;;-142.59;100.00;56100.38;5014729;28;49893;-73
2022/06/01 09:28:54;;;;;;;;;2.00;2.00;;;;;-142.59;100.00;56100.38;5014747;28;49940;-69
2022/06/01 09:31:30;;;;;;;;;2.50;2.50;;;;;-142.59;100.00;56100.38;5014504;28;50757;-71
2022/06/01 09:34:14;;;;;;;;;3.00;2.00;;;;;-142.59;100.00;56100.38;5013925;28;49690;-71
2022/06/01 09:36:52;;;;;;;;;2.25;2.25;;;;;-142.59;100.00;56100.38;5028540;28;49843;-71
2022/06/01 09:39:19;;;;;;;;;1.75;1.75;;;;;-142.59;100.00;56100.38;5015413;28;49670;-70
2022/06/01 09:41:44;;;;;;;;;1.00;1.00;;;;;-142.59;100.00;56100.38;5033313;28;50606;-70
2022/06/01 09:44:17;;;;;;;;;2.75;2.00;;;;;-142.59;100.00;56100.38;5033571;28;49815;-77
2022/06/01 09:47:00;;;;;;;;;7.25;4.00;;;;;-142.59;100.00;56100.38;5024559;28;49740;-71
2022/06/01 09:49:36;;;;;;;;;1.00;1.00;;;;;-142.59;100.00;56100.38;5014817;28;49903;-75
2022/06/01 09:52:12;;;;;;;;;2.00;1.25;;;;;-142.59;100.00;56100.38;5018449;28;51390;-77
2022/06/01 09:54:44;;;;;;;;;2.25;2.25;;;;;-142.59;100.00;56100.38;5027171;28;49697;-71
2022/06/01 09:57:27;;;;;;;;;2.00;2.00;;;;;-142.59;100.00;56100.38;5033279;28;50432;-75
2022/06/01 10:08:30;;;;;;;;;1.50;1.50;;;;;-142.59;100.00;56100.38;5032935;28;49785;-74
2022/06/01 10:11:24;;;;;;;;;1.00;1.00;;;;;-142.59;100.00;56100.38;5014689;28;50129;-70
2022/06/01 10:13:53;;;;;;;;;3.50;3.00;;;;;-142.59;100.00;56100.38;5023161;28;49728;-75
2022/06/01 10:16:27;;;;;;;;;2.00;2.00;;;;;-142.59;100.00;56100.38;5033070;28;49808;-74
2022/06/01 10:18:55;;;;;;;;;2.50;1.50;;;;;-142.59;100.00;56100.38;5032932;28;50503;-75
2022/06/01 10:21:27;;;;;;;;;4.25;2.00;;;;;-142.59;100.00;56100.38;5031719;28;49908;-75
2022/06/01 10:24:00;;;;;;;;;3.75;2.25;;;;;-142.59;100.00;56100.38;5015930;28;50902;-76
2022/06/01 10:26:30;;;;;;;;;14.25;12.75;;;;;-142.59;100.00;56100.38;5016352;28;50030;-76
2022/06/01 10:29:08;;;;;;;;;13.75;13.25;;;;;-142.59;100.00;56100.38;5021535;28;49812;-77
2022/06/01 10:31:46;;;;;;;;;57.75;47.75;;;;;-142.59;100.00;56100.38;5035676;28;49907;-80
2022/06/01 10:34:17;;;;;;;;;6.00;6.00;;;;;-142.59;100.00;56100.38;5032825;28;50508;-73
2022/06/01 10:36:48;;;;;;;;;22.50;19.75;;;;;-142.59;100.00;56100.38;5013402;28;50003;-73
2022/06/01 10:39:14;;;;;;;;;5.75;4.75;;;;;-142.59;100.00;56100.38;5013296;28;49833;-78
2022/06/01 10:42:06;;;;;;;;;17.25;17.25;;;;;-142.59;100.00;56100.38;5015964;28;49648;-81
2022/06/01 10:44:44;;;;;;;;;2.50;2.00;;;;;-142.59;100.00;56100.38;5015967;28;49668;-78
2022/06/01 10:47:20;;;;;;;;;10.00;8.25;;;;;-142.59;100.00;56100.38;4996554;28;49835;-78
2022/06/01 10:50:13;;;;;;;;;3.25;2.25;;;;;-142.59;100.00;56100.38;5025991;28;49697;-75
2022/06/01 10:53:07;;;;;;;;;2.00;2.00;;;;;-142.59;100.00;56100.38;5007120;28;49789;-80
2022/06/01 10:55:42;;;;;;;;;1.25;1.25;;;;;-142.59;100.00;56100.38;5025872;28;50933;-77
2022/06/01 10:58:16;;;;;;;;;2.50;2.50;;;;;-142.59;100.00;56100.38;5013731;28;49797;-79
2022/06/01 11:00:49;;;;;;;;;3.00;3.00;;;;;-142.59;100.00;56100.38;5013364;28;49722;-76
2022/06/01 11:04:01;;;;;;;;;2.25;2.25;;;;;-142.59;100.00;56100.38;5012376;28;49809;-83
2022/06/01 11:06:41;;;;;;;;;1.00;1.00;;;;;-142.59;100.00;56100.38;4997619;28;51692;-78
2022/06/01 11:09:13;;;;;;;;;3.50;2.00;;;;;-142.59;100.00;56100.38;4995093;28;49858;-80
2022/06/01 11:11:54;;;;;;;;;2.25;2.00;;;;;-142.59;100.00;56100.38;5013051;28;49872;-77
2022/06/01 11:14:32;;;;;;;;;4.75;3.75;;;;;-142.59;100.00;56100.38;5026013;28;49937;-77
2022/06/01 11:17:16;;;;;;;;;4.00;3.00;;;;;-142.59;100.00;56100.38;5030855;28;52262;-77
2022/06/01 11:19:53;;;;;;;;;4.00;3.00;;;;;-142.59;100.00;56100.38;5014129;28;49885;-77
2022/06/01 11:23:04;;;;;;;;;1.50;1.50;;;;;-142.59;100.00;56100.38;5014414;28;49825;-76
2022/06/01 11:25:56;;;;;;;;;1.25;1.00;;;;;-142.59;100.00;56100.38;4967740;28;50392;-77
2022/06/01 11:28:45;;;;;;;;;3.00;3.00;;;;;-142.59;100.00;56100.38;5012784;28;50429;-76
2022/06/01 11:31:26;;;;;;;;;2.25;2.25;;;;;-142.59;100.00;56100.38;4994927;28;49592;-76
2022/06/01 11:33:57;;;;;;;;;1.00;1.00;;;;;-142.59;100.00;56100.38;5011529;28;49877;-76
2022/06/01 11:36:54;;;;;;;;;2.00;2.00;;;;;-142.59;100.00;56100.38;4995109;28;49902;-77
2022/06/01 11:39:47;;;;;;;;;2.50;2.00;;;;;-142.59;100.00;56100.38;5027617;28;49864;-77
2022/06/01 11:42:21;;;;;;;;;1.25;1.25;;;;;-142.59;100.00;56100.38;5031968;28;49861;-78